sensor_id;sensor_type;location;lat;lon;timestamp;P1;durP1;ratioP1;P2;durP2;ratioP2
3343;SDS011;1685;53.104;8.228;2023-06-05T00:02:14;9.50;;;5.00;;
3343;SDS011;1685;53.104;8.228;2023-06-05T00:04:41;6.13;;;4.53;;
3343;SDS011;1685;53.104;8.228;2023-06-05T00:07:08;8.90;;;4.70;;
3343;SDS011;1685;53.104;8.228;2023-06-05T00:09:35;9.13;;;4.50;;
3343;SDS011;1685;53.104;8.228;2023-06-05T00:12:03;11.50;;;5.17;;
3343;SDS011;1685;53.104;8.228;2023-06-05T00:14:31;10.83;;;5.53;;
3343;SDS011;1685;53.104;8.228;2023-06-05T00:16:58;11.40;;;4.30;;
3343;SDS011;1685;53.104;8.228;2023-06-05T00:19:25;6.73;;;5.07;;
3343;SDS011;1685;53.104;8.228;2023-06-05T00:21:52;7.40;;;5.03;;
3343;SDS011;1685;53.104;8.228;2023-06-05T00:24:19;7.10;;;4.47;;
3343;SDS011;1685;53.104;8.228;2023-06-05T00:26:46;9.00;;;4.87;;
3343;SDS011;1685;53.104;8.228;2023-06-05T00:29:14;11.63;;;5.17;;
3343;SDS011;1685;53.104;8.228;2023-06-05T00:31:43;5.87;;;5.27;;
3343;SDS011;1685;53.104;8.228;2023-06-05T00:34:11;20.87;;;5.73;;
3343;SDS011;1685;53.104;8.228;2023-06-05T00:36:38;6.63;;;4.77;;
3343;SDS011;1685;53.104;8.228;2023-06-05T00:39:05;8.53;;;5.67;;
3343;SDS011;1685;53.104;8.228;2023-06-05T00:41:33;9.80;;;6.00;;
3343;SDS011;1685;53.104;8.228;2023-06-05T00:44:00;9.53;;;5.07;;
3343;SDS011;1685;53.104;8.228;2023-06-05T00:46:27;8.13;;;4.47;;
3343;SDS011;1685;53.104;8.228;2023-06-05T00:48:56;5.20;;;4.70;;
3343;SDS011;1685;53.104;8.228;2023-06-05T00:51:23;13.17;;;5.37;;
3343;SDS011;1685;53.104;8.228;2023-06-05T00:53:50;7.80;;;4.80;;
3343;SDS011;1685;53.104;8.228;2023-06-05T00:56:17;9.43;;;5.20;;
3343;SDS011;1685;53.104;8.228;2023-06-05T00:58:46;12.33;;;4.73;;
3343;SDS011;1685;53.104;8.228;2023-06-05T01:01:13;9.17;;;5.60;;
3343;SDS011;1685;53.104;8.228;2023-06-05T01:03:42;12.30;;;6.10;;
3343;SDS011;1685;53.104;8.228;2023-06-05T01:06:11;13.57;;;6.83;;
3343;SDS011;1685;53.104;8.228;2023-06-05T01:08:38;15.07;;;6.17;;
3343;SDS011;1685;53.104;8.228;2023-06-05T01:11:09;6.70;;;5.40;;
3343;SDS011;1685;53.104;8.228;2023-06-05T01:13:40;11.37;;;5.13;;
3343;SDS011;1685;53.104;8.228;2023-06-05T01:16:12;8.77;;;4.50;;
3343;SDS011;1685;53.104;8.228;2023-06-05T01:18:40;12.20;;;5.77;;
3343;SDS011;1685;53.104;8.228;2023-06-05T01:21:12;9.83;;;5.83;;
3343;SDS011;1685;53.104;8.228;2023-06-05T01:23:41;9.87;;;5.43;;
3343;SDS011;1685;53.104;8.228;2023-06-05T01:26:10;5.97;;;5.20;;
3343;SDS011;1685;53.104;8.228;2023-06-05T01:28:42;8.83;;;6.00;;
3343;SDS011;1685;53.104;8.228;2023-06-05T01:31:12;12.13;;;6.00;;
3343;SDS011;1685;53.104;8.228;2023-06-05T01:33:46;8.50;;;5.17;;
3343;SDS011;1685;53.104;8.228;2023-06-05T01:36:17;10.70;;;7.33;;
3343;SDS011;1685;53.104;8.228;2023-06-05T01:38:47;7.57;;;5.30;;
3343;SDS011;1685;53.104;8.228;2023-06-05T01:41:15;10.00;;;5.40;;
3343;SDS011;1685;53.104;8.228;2023-06-05T01:43:44;12.80;;;6.27;;
3343;SDS011;1685;53.104;8.228;2023-06-05T01:46:12;11.43;;;6.07;;
3343;SDS011;1685;53.104;8.228;2023-06-05T01:48:39;8.50;;;5.60;;
3343;SDS011;1685;53.104;8.228;2023-06-05T01:51:07;9.00;;;6.83;;
3343;SDS011;1685;53.104;8.228;2023-06-05T01:53:35;8.60;;;6.23;;
3343;SDS011;1685;53.104;8.228;2023-06-05T01:56:03;6.93;;;5.20;;
3343;SDS011;1685;53.104;8.228;2023-06-05T01:58:33;7.90;;;6.27;;
3343;SDS011;1685;53.104;8.228;2023-06-05T02:01:02;10.53;;;6.00;;
3343;SDS011;1685;53.104;8.228;2023-06-05T02:03:30;12.60;;;6.60;;
3343;SDS011;1685;53.104;8.228;2023-06-05T02:05:58;8.70;;;6.37;;
3343;SDS011;1685;53.104;8.228;2023-06-05T02:08:25;9.30;;;5.70;;
3343;SDS011;1685;53.104;8.228;2023-06-05T02:10:53;10.13;;;7.20;;
3343;SDS011;1685;53.104;8.228;2023-06-05T02:13:21;10.50;;;6.77;;
3343;SDS011;1685;53.104;8.228;2023-06-05T02:15:49;12.03;;;7.30;;
3343;SDS011;1685;53.104;8.228;2023-06-05T02:18:21;9.83;;;7.20;;
3343;SDS011;1685;53.104;8.228;2023-06-05T02:20:52;12.40;;;8.30;;
3343;SDS011;1685;53.104;8.228;2023-06-05T02:23:20;11.63;;;6.33;;
3343;SDS011;1685;53.104;8.228;2023-06-05T02:25:47;10.20;;;7.73;;
3343;SDS011;1685;53.104;8.228;2023-06-05T02:28:14;11.40;;;6.70;;
3343;SDS011;1685;53.104;8.228;2023-06-05T02:30:43;9.80;;;6.23;;
3343;SDS011;1685;53.104;8.228;2023-06-05T02:33:10;9.50;;;6.43;;
3343;SDS011;1685;53.104;8.228;2023-06-05T02:35:37;11.53;;;7.70;;
3343;SDS011;1685;53.104;8.228;2023-06-05T02:38:05;14.13;;;7.40;;
3343;SDS011;1685;53.104;8.228;2023-06-05T02:40:32;15.10;;;8.40;;
3343;SDS011;1685;53.104;8.228;2023-06-05T02:42:59;15.00;;;7.70;;
3343;SDS011;1685;53.104;8.228;2023-06-05T02:45:30;11.90;;;6.73;;
3343;SDS011;1685;53.104;8.228;2023-06-05T02:47:58;12.47;;;8.23;;
3343;SDS011;1685;53.104;8.228;2023-06-05T02:50:25;9.90;;;6.93;;
3343;SDS011;1685;53.104;8.228;2023-06-05T02:52:52;22.67;;;9.63;;
3343;SDS011;1685;53.104;8.228;2023-06-05T02:55:19;12.50;;;7.70;;
3343;SDS011;1685;53.104;8.228;2023-06-05T02:57:47;11.17;;;7.57;;
3343;SDS011;1685;53.104;8.228;2023-06-05T03:00:14;11.40;;;7.83;;
3343;SDS011;1685;53.104;8.228;2023-06-05T03:02:42;17.40;;;8.90;;
3343;SDS011;1685;53.104;8.228;2023-06-05T03:05:14;15.20;;;9.70;;
3343;SDS011;1685;53.104;8.228;2023-06-05T03:07:43;13.33;;;9.23;;
3343;SDS011;1685;53.104;8.228;2023-06-05T03:10:11;11.20;;;8.57;;
3343;SDS011;1685;53.104;8.228;2023-06-05T03:12:38;17.73;;;9.83;;
3343;SDS011;1685;53.104;8.228;2023-06-05T03:15:05;13.33;;;9.53;;
3343;SDS011;1685;53.104;8.228;2023-06-05T03:17:32;16.47;;;9.73;;
3343;SDS011;1685;53.104;8.228;2023-06-05T03:19:59;18.60;;;10.40;;
3343;SDS011;1685;53.104;8.228;2023-06-05T03:22:28;19.70;;;11.60;;
3343;SDS011;1685;53.104;8.228;2023-06-05T03:24:55;16.43;;;10.03;;
3343;SDS011;1685;53.104;8.228;2023-06-05T03:27:22;16.23;;;10.03;;
3343;SDS011;1685;53.104;8.228;2023-06-05T03:29:50;15.13;;;8.83;;
3343;SDS011;1685;53.104;8.228;2023-06-05T03:32:17;18.57;;;9.50;;
3343;SDS011;1685;53.104;8.228;2023-06-05T03:34:44;18.00;;;9.93;;
3343;SDS011;1685;53.104;8.228;2023-06-05T03:37:13;14.77;;;10.03;;
3343;SDS011;1685;53.104;8.228;2023-06-05T03:39:42;15.50;;;10.30;;
3343;SDS011;1685;53.104;8.228;2023-06-05T03:42:09;23.23;;;11.10;;
3343;SDS011;1685;53.104;8.228;2023-06-05T03:44:37;18.00;;;11.83;;
3343;SDS011;1685;53.104;8.228;2023-06-05T03:47:04;19.03;;;11.70;;
3343;SDS011;1685;53.104;8.228;2023-06-05T03:49:32;18.10;;;10.83;;
3343;SDS011;1685;53.104;8.228;2023-06-05T03:52:00;17.53;;;10.00;;
3343;SDS011;1685;53.104;8.228;2023-06-05T03:54:27;16.17;;;9.80;;
3343;SDS011;1685;53.104;8.228;2023-06-05T03:56:59;16.37;;;10.40;;
3343;SDS011;1685;53.104;8.228;2023-06-05T03:59:27;16.23;;;10.83;;
3343;SDS011;1685;53.104;8.228;2023-06-05T04:01:55;16.33;;;10.03;;
3343;SDS011;1685;53.104;8.228;2023-06-05T04:04:22;15.47;;;10.47;;
3343;SDS011;1685;53.104;8.228;2023-06-05T04:06:49;16.27;;;10.13;;
3343;SDS011;1685;53.104;8.228;2023-06-05T04:09:17;22.73;;;10.30;;
3343;SDS011;1685;53.104;8.228;2023-06-05T04:11:44;15.53;;;9.50;;
3343;SDS011;1685;53.104;8.228;2023-06-05T04:14:13;16.53;;;10.20;;
3343;SDS011;1685;53.104;8.228;2023-06-05T04:16:40;18.27;;;8.37;;
3343;SDS011;1685;53.104;8.228;2023-06-05T04:19:08;14.53;;;9.03;;
3343;SDS011;1685;53.104;8.228;2023-06-05T04:21:35;24.80;;;10.33;;
3343;SDS011;1685;53.104;8.228;2023-06-05T04:24:03;14.77;;;9.57;;
3343;SDS011;1685;53.104;8.228;2023-06-05T04:26:32;21.50;;;10.47;;
3343;SDS011;1685;53.104;8.228;2023-06-05T04:28:59;17.50;;;11.70;;
3343;SDS011;1685;53.104;8.228;2023-06-05T04:31:29;21.43;;;10.00;;
3343;SDS011;1685;53.104;8.228;2023-06-05T04:33:57;17.30;;;8.97;;
3343;SDS011;1685;53.104;8.228;2023-06-05T04:36:27;18.67;;;8.90;;
3343;SDS011;1685;53.104;8.228;2023-06-05T04:38:54;24.73;;;8.70;;
3343;SDS011;1685;53.104;8.228;2023-06-05T04:41:22;21.67;;;9.03;;
3343;SDS011;1685;53.104;8.228;2023-06-05T04:43:49;15.27;;;7.90;;
3343;SDS011;1685;53.104;8.228;2023-06-05T04:46:16;23.90;;;9.50;;
3343;SDS011;1685;53.104;8.228;2023-06-05T04:48:44;15.50;;;9.10;;
3343;SDS011;1685;53.104;8.228;2023-06-05T04:51:11;10.50;;;7.20;;
3343;SDS011;1685;53.104;8.228;2023-06-05T04:53:38;12.33;;;9.00;;
3343;SDS011;1685;53.104;8.228;2023-06-05T04:56:06;14.43;;;8.30;;
3343;SDS011;1685;53.104;8.228;2023-06-05T04:58:34;17.47;;;8.53;;
3343;SDS011;1685;53.104;8.228;2023-06-05T05:01:02;15.50;;;8.03;;
3343;SDS011;1685;53.104;8.228;2023-06-05T05:03:31;13.27;;;8.73;;
3343;SDS011;1685;53.104;8.228;2023-06-05T05:05:59;17.43;;;8.33;;
3343;SDS011;1685;53.104;8.228;2023-06-05T05:08:26;15.93;;;8.30;;
3343;SDS011;1685;53.104;8.228;2023-06-05T05:10:53;10.30;;;8.67;;
3343;SDS011;1685;53.104;8.228;2023-06-05T05:13:20;12.50;;;7.83;;
3343;SDS011;1685;53.104;8.228;2023-06-05T05:15:48;10.37;;;8.00;;
3343;SDS011;1685;53.104;8.228;2023-06-05T05:18:18;17.53;;;7.83;;
3343;SDS011;1685;53.104;8.228;2023-06-05T05:20:45;13.53;;;6.90;;
3343;SDS011;1685;53.104;8.228;2023-06-05T05:23:13;7.80;;;6.83;;
3343;SDS011;1685;53.104;8.228;2023-06-05T05:25:41;12.70;;;6.80;;
3343;SDS011;1685;53.104;8.228;2023-06-05T05:28:08;9.90;;;7.23;;
3343;SDS011;1685;53.104;8.228;2023-06-05T05:30:35;11.10;;;6.80;;
3343;SDS011;1685;53.104;8.228;2023-06-05T05:33:02;8.77;;;6.10;;
3343;SDS011;1685;53.104;8.228;2023-06-05T05:35:29;9.73;;;6.40;;
3343;SDS011;1685;53.104;8.228;2023-06-05T05:37:56;14.83;;;7.03;;
3343;SDS011;1685;53.104;8.228;2023-06-05T05:40:25;13.30;;;6.97;;
3343;SDS011;1685;53.104;8.228;2023-06-05T05:42:52;12.17;;;7.20;;
3343;SDS011;1685;53.104;8.228;2023-06-05T05:45:19;14.07;;;7.40;;
3343;SDS011;1685;53.104;8.228;2023-06-05T05:47:46;6.83;;;6.20;;
3343;SDS011;1685;53.104;8.228;2023-06-05T05:50:13;13.73;;;7.33;;
3343;SDS011;1685;53.104;8.228;2023-06-05T05:52:40;13.10;;;6.60;;
3343;SDS011;1685;53.104;8.228;2023-06-05T05:55:08;9.20;;;6.27;;
3343;SDS011;1685;53.104;8.228;2023-06-05T05:57:36;9.10;;;6.00;;
3343;SDS011;1685;53.104;8.228;2023-06-05T06:00:03;10.03;;;5.70;;
3343;SDS011;1685;53.104;8.228;2023-06-05T06:02:34;10.23;;;6.70;;
3343;SDS011;1685;53.104;8.228;2023-06-05T06:05:01;10.37;;;6.47;;
3343;SDS011;1685;53.104;8.228;2023-06-05T06:07:29;14.50;;;5.87;;
3343;SDS011;1685;53.104;8.228;2023-06-05T06:09:57;7.57;;;5.50;;
3343;SDS011;1685;53.104;8.228;2023-06-05T06:12:24;12.37;;;6.23;;
3343;SDS011;1685;53.104;8.228;2023-06-05T06:14:53;10.20;;;5.73;;
3343;SDS011;1685;53.104;8.228;2023-06-05T06:17:20;12.73;;;5.80;;
3343;SDS011;1685;53.104;8.228;2023-06-05T06:19:47;8.07;;;6.27;;
3343;SDS011;1685;53.104;8.228;2023-06-05T06:22:14;9.83;;;6.03;;
3343;SDS011;1685;53.104;8.228;2023-06-05T06:24:41;12.27;;;5.30;;
3343;SDS011;1685;53.104;8.228;2023-06-05T06:27:08;5.70;;;5.07;;
3343;SDS011;1685;53.104;8.228;2023-06-05T06:32:06;5.80;;;5.17;;
3343;SDS011;1685;53.104;8.228;2023-06-05T06:34:33;10.27;;;5.63;;
3343;SDS011;1685;53.104;8.228;2023-06-05T06:37:00;6.43;;;5.00;;
3343;SDS011;1685;53.104;8.228;2023-06-05T06:39:28;8.27;;;5.60;;
3343;SDS011;1685;53.104;8.228;2023-06-05T06:41:56;8.67;;;6.07;;
3343;SDS011;1685;53.104;8.228;2023-06-05T06:44:23;9.30;;;5.70;;
3343;SDS011;1685;53.104;8.228;2023-06-05T06:46:50;9.43;;;6.67;;
3343;SDS011;1685;53.104;8.228;2023-06-05T06:49:19;9.67;;;6.27;;
3343;SDS011;1685;53.104;8.228;2023-06-05T06:51:46;11.93;;;6.50;;
3343;SDS011;1685;53.104;8.228;2023-06-05T06:54:13;13.63;;;5.70;;
3343;SDS011;1685;53.104;8.228;2023-06-05T06:56:40;13.30;;;5.70;;
3343;SDS011;1685;53.104;8.228;2023-06-05T06:59:11;8.40;;;5.70;;
3343;SDS011;1685;53.104;8.228;2023-06-05T07:01:41;10.23;;;5.80;;
3343;SDS011;1685;53.104;8.228;2023-06-05T07:04:10;9.80;;;7.00;;
3343;SDS011;1685;53.104;8.228;2023-06-05T07:06:42;11.70;;;6.10;;
3343;SDS011;1685;53.104;8.228;2023-06-05T07:09:09;6.50;;;5.77;;
3343;SDS011;1685;53.104;8.228;2023-06-05T07:11:36;13.50;;;6.63;;
3343;SDS011;1685;53.104;8.228;2023-06-05T07:14:04;19.13;;;7.20;;
3343;SDS011;1685;53.104;8.228;2023-06-05T07:16:32;10.73;;;6.03;;
3343;SDS011;1685;53.104;8.228;2023-06-05T07:18:59;8.20;;;6.37;;
3343;SDS011;1685;53.104;8.228;2023-06-05T07:21:28;10.43;;;6.70;;
3343;SDS011;1685;53.104;8.228;2023-06-05T07:23:56;9.43;;;7.47;;
3343;SDS011;1685;53.104;8.228;2023-06-05T07:26:23;8.60;;;5.93;;
3343;SDS011;1685;53.104;8.228;2023-06-05T07:28:50;12.93;;;7.77;;
3343;SDS011;1685;53.104;8.228;2023-06-05T07:31:17;8.23;;;7.40;;
3343;SDS011;1685;53.104;8.228;2023-06-05T07:33:46;10.00;;;7.43;;
3343;SDS011;1685;53.104;8.228;2023-06-05T07:36:13;7.87;;;6.37;;
3343;SDS011;1685;53.104;8.228;2023-06-05T07:38:40;15.83;;;6.97;;
3343;SDS011;1685;53.104;8.228;2023-06-05T07:41:10;10.30;;;7.53;;
3343;SDS011;1685;53.104;8.228;2023-06-05T07:43:37;9.73;;;6.70;;
3343;SDS011;1685;53.104;8.228;2023-06-05T07:46:07;10.90;;;7.50;;
3343;SDS011;1685;53.104;8.228;2023-06-05T07:48:35;8.23;;;6.37;;
3343;SDS011;1685;53.104;8.228;2023-06-05T07:51:01;16.97;;;9.07;;
3343;SDS011;1685;53.104;8.228;2023-06-05T07:53:29;8.43;;;7.37;;
3343;SDS011;1685;53.104;8.228;2023-06-05T07:55:56;9.20;;;7.43;;
3343;SDS011;1685;53.104;8.228;2023-06-05T07:58:24;11.80;;;8.20;;
3343;SDS011;1685;53.104;8.228;2023-06-05T08:00:52;12.53;;;8.53;;
3343;SDS011;1685;53.104;8.228;2023-06-05T08:03:21;8.30;;;7.50;;
3343;SDS011;1685;53.104;8.228;2023-06-05T08:05:49;13.73;;;8.27;;
3343;SDS011;1685;53.104;8.228;2023-06-05T08:08:16;11.13;;;8.20;;
3343;SDS011;1685;53.104;8.228;2023-06-05T08:10:44;10.03;;;8.40;;
3343;SDS011;1685;53.104;8.228;2023-06-05T08:13:12;11.87;;;8.37;;
3343;SDS011;1685;53.104;8.228;2023-06-05T08:15:41;9.80;;;7.97;;
3343;SDS011;1685;53.104;8.228;2023-06-05T08:18:08;9.97;;;8.80;;
3343;SDS011;1685;53.104;8.228;2023-06-05T08:20:35;11.20;;;7.83;;
3343;SDS011;1685;53.104;8.228;2023-06-05T08:23:02;9.80;;;7.77;;
3343;SDS011;1685;53.104;8.228;2023-06-05T08:25:30;8.30;;;6.70;;
3343;SDS011;1685;53.104;8.228;2023-06-05T08:27:57;9.57;;;6.40;;
3343;SDS011;1685;53.104;8.228;2023-06-05T08:30:24;7.90;;;6.90;;
3343;SDS011;1685;53.104;8.228;2023-06-05T08:32:53;6.77;;;6.13;;
3343;SDS011;1685;53.104;8.228;2023-06-05T08:35:19;8.93;;;7.07;;
3343;SDS011;1685;53.104;8.228;2023-06-05T08:37:46;10.03;;;6.60;;
3343;SDS011;1685;53.104;8.228;2023-06-05T08:40:13;7.10;;;6.40;;
3343;SDS011;1685;53.104;8.228;2023-06-05T08:42:43;6.00;;;5.40;;
3343;SDS011;1685;53.104;8.228;2023-06-05T08:45:10;10.00;;;6.00;;
3343;SDS011;1685;53.104;8.228;2023-06-05T08:47:38;13.23;;;6.20;;
3343;SDS011;1685;53.104;8.228;2023-06-05T08:50:08;5.67;;;5.07;;
3343;SDS011;1685;53.104;8.228;2023-06-05T08:52:37;11.40;;;5.33;;
3343;SDS011;1685;53.104;8.228;2023-06-05T08:55:06;8.70;;;5.60;;
3343;SDS011;1685;53.104;8.228;2023-06-05T08:57:34;9.17;;;4.97;;
3343;SDS011;1685;53.104;8.228;2023-06-05T09:00:02;6.93;;;5.20;;
3343;SDS011;1685;53.104;8.228;2023-06-05T09:02:33;5.30;;;4.80;;
3343;SDS011;1685;53.104;8.228;2023-06-05T09:05:02;6.33;;;4.60;;
3343;SDS011;1685;53.104;8.228;2023-06-05T09:07:31;5.83;;;4.83;;
3343;SDS011;1685;53.104;8.228;2023-06-05T09:09:58;7.60;;;5.17;;
3343;SDS011;1685;53.104;8.228;2023-06-05T09:12:25;7.80;;;5.60;;
3343;SDS011;1685;53.104;8.228;2023-06-05T09:14:52;8.40;;;5.40;;
3343;SDS011;1685;53.104;8.228;2023-06-05T09:17:20;7.57;;;4.83;;
3343;SDS011;1685;53.104;8.228;2023-06-05T09:19:48;7.67;;;4.83;;
3343;SDS011;1685;53.104;8.228;2023-06-05T09:22:15;5.30;;;4.80;;
3343;SDS011;1685;53.104;8.228;2023-06-05T09:24:44;7.20;;;4.80;;
3343;SDS011;1685;53.104;8.228;2023-06-05T09:27:22;7.90;;;4.60;;
3343;SDS011;1685;53.104;8.228;2023-06-05T09:29:51;8.20;;;4.70;;
3343;SDS011;1685;53.104;8.228;2023-06-05T09:32:30;7.50;;;4.57;;
3343;SDS011;1685;53.104;8.228;2023-06-05T09:34:57;6.67;;;4.50;;
3343;SDS011;1685;53.104;8.228;2023-06-05T09:37:32;7.57;;;4.90;;
3343;SDS011;1685;53.104;8.228;2023-06-05T09:40:01;4.97;;;4.33;;
3343;SDS011;1685;53.104;8.228;2023-06-05T09:42:33;8.40;;;4.70;;
3343;SDS011;1685;53.104;8.228;2023-06-05T09:45:00;23.50;;;5.47;;
3343;SDS011;1685;53.104;8.228;2023-06-05T09:47:29;8.87;;;5.17;;
3343;SDS011;1685;53.104;8.228;2023-06-05T09:49:56;6.00;;;4.37;;
3343;SDS011;1685;53.104;8.228;2023-06-05T09:52:23;4.77;;;4.37;;
3343;SDS011;1685;53.104;8.228;2023-06-05T09:54:50;9.93;;;4.90;;
3343;SDS011;1685;53.104;8.228;2023-06-05T09:57:23;22.10;;;4.97;;
3343;SDS011;1685;53.104;8.228;2023-06-05T09:59:52;6.97;;;4.37;;
3343;SDS011;1685;53.104;8.228;2023-06-05T10:02:20;5.23;;;4.60;;
3343;SDS011;1685;53.104;8.228;2023-06-05T10:04:48;11.20;;;3.73;;
3343;SDS011;1685;53.104;8.228;2023-06-05T10:07:17;9.57;;;4.30;;
3343;SDS011;1685;53.104;8.228;2023-06-05T10:09:46;6.03;;;4.33;;
3343;SDS011;1685;53.104;8.228;2023-06-05T10:12:16;5.90;;;4.50;;
3343;SDS011;1685;53.104;8.228;2023-06-05T10:14:44;4.60;;;4.00;;
3343;SDS011;1685;53.104;8.228;2023-06-05T10:17:11;6.73;;;3.40;;
3343;SDS011;1685;53.104;8.228;2023-06-05T10:19:41;6.47;;;3.80;;
3343;SDS011;1685;53.104;8.228;2023-06-05T10:22:09;6.47;;;4.23;;
3343;SDS011;1685;53.104;8.228;2023-06-05T10:24:37;10.03;;;4.07;;
3343;SDS011;1685;53.104;8.228;2023-06-05T10:27:22;5.10;;;4.50;;
3343;SDS011;1685;53.104;8.228;2023-06-05T10:30:13;6.30;;;4.20;;
3343;SDS011;1685;53.104;8.228;2023-06-05T10:35:45;6.13;;;4.43;;
3343;SDS011;1685;53.104;8.228;2023-06-05T10:38:17;6.93;;;3.90;;
3343;SDS011;1685;53.104;8.228;2023-06-05T10:40:46;5.17;;;4.27;;
3343;SDS011;1685;53.104;8.228;2023-06-05T10:43:24;4.40;;;3.83;;
3343;SDS011;1685;53.104;8.228;2023-06-05T10:45:57;6.97;;;4.20;;
3343;SDS011;1685;53.104;8.228;2023-06-05T10:51:32;5.60;;;4.23;;
3343;SDS011;1685;53.104;8.228;2023-06-05T10:54:02;4.93;;;4.17;;
3343;SDS011;1685;53.104;8.228;2023-06-05T10:56:52;4.87;;;3.63;;
3343;SDS011;1685;53.104;8.228;2023-06-05T10:59:21;6.50;;;4.40;;
3343;SDS011;1685;53.104;8.228;2023-06-05T11:05:07;7.70;;;3.57;;
3343;SDS011;1685;53.104;8.228;2023-06-05T11:07:38;4.90;;;4.10;;
3343;SDS011;1685;53.104;8.228;2023-06-05T11:10:13;4.63;;;4.00;;
3343;SDS011;1685;53.104;8.228;2023-06-05T11:12:59;5.30;;;3.63;;
3343;SDS011;1685;53.104;8.228;2023-06-05T11:15:34;5.47;;;3.60;;
3343;SDS011;1685;53.104;8.228;2023-06-05T11:18:29;6.10;;;4.20;;
3343;SDS011;1685;53.104;8.228;2023-06-05T11:21:01;7.50;;;3.80;;
3343;SDS011;1685;53.104;8.228;2023-06-05T11:23:29;5.33;;;4.83;;
3343;SDS011;1685;53.104;8.228;2023-06-05T11:25:57;6.30;;;5.23;;
3343;SDS011;1685;53.104;8.228;2023-06-05T11:28:44;5.53;;;4.10;;
3343;SDS011;1685;53.104;8.228;2023-06-05T11:31:11;4.50;;;4.00;;
3343;SDS011;1685;53.104;8.228;2023-06-05T11:33:40;6.17;;;4.20;;
3343;SDS011;1685;53.104;8.228;2023-06-05T11:36:07;9.27;;;4.87;;
3343;SDS011;1685;53.104;8.228;2023-06-05T11:38:34;9.30;;;4.67;;
3343;SDS011;1685;53.104;8.228;2023-06-05T11:41:05;11.90;;;4.43;;
3343;SDS011;1685;53.104;8.228;2023-06-05T11:43:40;6.60;;;4.23;;
3343;SDS011;1685;53.104;8.228;2023-06-05T11:46:08;7.53;;;4.60;;
3343;SDS011;1685;53.104;8.228;2023-06-05T11:48:37;7.43;;;4.67;;
3343;SDS011;1685;53.104;8.228;2023-06-05T11:51:11;6.47;;;4.63;;
3343;SDS011;1685;53.104;8.228;2023-06-05T11:53:43;9.57;;;4.90;;
3343;SDS011;1685;53.104;8.228;2023-06-05T11:56:12;8.50;;;4.70;;
3343;SDS011;1685;53.104;8.228;2023-06-05T11:58:41;8.20;;;4.10;;
3343;SDS011;1685;53.104;8.228;2023-06-05T12:01:10;5.53;;;4.97;;
3343;SDS011;1685;53.104;8.228;2023-06-05T12:03:40;6.87;;;4.70;;
3343;SDS011;1685;53.104;8.228;2023-06-05T12:06:08;5.87;;;3.97;;
3343;SDS011;1685;53.104;8.228;2023-06-05T12:08:37;5.53;;;4.13;;
3343;SDS011;1685;53.104;8.228;2023-06-05T12:11:18;11.23;;;4.80;;
3343;SDS011;1685;53.104;8.228;2023-06-05T12:13:47;7.97;;;6.00;;
3343;SDS011;1685;53.104;8.228;2023-06-05T12:16:14;5.47;;;4.43;;
3343;SDS011;1685;53.104;8.228;2023-06-05T12:18:42;6.87;;;4.50;;
3343;SDS011;1685;53.104;8.228;2023-06-05T12:21:20;5.20;;;4.67;;
3343;SDS011;1685;53.104;8.228;2023-06-05T12:23:48;5.47;;;4.57;;
3343;SDS011;1685;53.104;8.228;2023-06-05T12:26:16;7.50;;;4.30;;
3343;SDS011;1685;53.104;8.228;2023-06-05T12:28:43;4.40;;;4.00;;
3343;SDS011;1685;53.104;8.228;2023-06-05T12:33:59;6.27;;;4.20;;
3343;SDS011;1685;53.104;8.228;2023-06-05T12:36:28;8.00;;;4.57;;
3343;SDS011;1685;53.104;8.228;2023-06-05T12:39:00;7.70;;;5.27;;
3343;SDS011;1685;53.104;8.228;2023-06-05T12:41:29;5.23;;;4.40;;
3343;SDS011;1685;53.104;8.228;2023-06-05T12:43:59;5.97;;;5.07;;
3343;SDS011;1685;53.104;8.228;2023-06-05T12:46:27;7.93;;;4.33;;
3343;SDS011;1685;53.104;8.228;2023-06-05T12:48:54;14.20;;;4.73;;
3343;SDS011;1685;53.104;8.228;2023-06-05T12:51:22;9.37;;;4.87;;
3343;SDS011;1685;53.104;8.228;2023-06-05T12:53:51;9.70;;;5.03;;
3343;SDS011;1685;53.104;8.228;2023-06-05T12:56:17;7.93;;;4.73;;
3343;SDS011;1685;53.104;8.228;2023-06-05T12:58:48;6.10;;;5.27;;
3343;SDS011;1685;53.104;8.228;2023-06-05T13:01:15;6.43;;;4.33;;
3343;SDS011;1685;53.104;8.228;2023-06-05T13:03:42;10.70;;;4.70;;
3343;SDS011;1685;53.104;8.228;2023-06-05T13:06:10;9.87;;;5.07;;
3343;SDS011;1685;53.104;8.228;2023-06-05T13:08:37;7.07;;;4.80;;
3343;SDS011;1685;53.104;8.228;2023-06-05T13:11:05;7.57;;;5.50;;
3343;SDS011;1685;53.104;8.228;2023-06-05T13:13:32;5.13;;;4.60;;
3343;SDS011;1685;53.104;8.228;2023-06-05T13:15:59;7.77;;;4.93;;
3343;SDS011;1685;53.104;8.228;2023-06-05T13:18:27;8.00;;;5.37;;
3343;SDS011;1685;53.104;8.228;2023-06-05T13:20:54;9.07;;;5.03;;
3343;SDS011;1685;53.104;8.228;2023-06-05T13:23:21;7.60;;;5.40;;
3343;SDS011;1685;53.104;8.228;2023-06-05T13:25:48;9.63;;;5.27;;
3343;SDS011;1685;53.104;8.228;2023-06-05T13:28:16;11.73;;;6.50;;
3343;SDS011;1685;53.104;8.228;2023-06-05T13:30:43;5.33;;;4.83;;
3343;SDS011;1685;53.104;8.228;2023-06-05T13:33:12;5.67;;;4.80;;
3343;SDS011;1685;53.104;8.228;2023-06-05T13:35:39;9.80;;;5.30;;
3343;SDS011;1685;53.104;8.228;2023-06-05T13:38:06;5.80;;;5.30;;
3343;SDS011;1685;53.104;8.228;2023-06-05T13:40:33;8.83;;;5.67;;
3343;SDS011;1685;53.104;8.228;2023-06-05T13:43:00;5.00;;;4.07;;
3343;SDS011;1685;53.104;8.228;2023-06-05T13:45:29;6.63;;;5.00;;
3343;SDS011;1685;53.104;8.228;2023-06-05T13:47:56;5.00;;;4.40;;
3343;SDS011;1685;53.104;8.228;2023-06-05T13:50:23;6.33;;;4.80;;
3343;SDS011;1685;53.104;8.228;2023-06-05T13:52:50;9.07;;;4.40;;
3343;SDS011;1685;53.104;8.228;2023-06-05T13:55:17;10.07;;;4.10;;
3343;SDS011;1685;53.104;8.228;2023-06-05T13:57:44;6.27;;;5.50;;
3343;SDS011;1685;53.104;8.228;2023-06-05T14:00:12;4.70;;;4.10;;
3343;SDS011;1685;53.104;8.228;2023-06-05T14:02:41;7.67;;;3.90;;
3343;SDS011;1685;53.104;8.228;2023-06-05T14:05:08;8.17;;;3.90;;
3343;SDS011;1685;53.104;8.228;2023-06-05T14:07:36;9.83;;;4.70;;
3343;SDS011;1685;53.104;8.228;2023-06-05T14:10:04;8.27;;;4.30;;
3343;SDS011;1685;53.104;8.228;2023-06-05T14:12:31;6.50;;;3.50;;
3343;SDS011;1685;53.104;8.228;2023-06-05T14:14:58;4.93;;;3.73;;
3343;SDS011;1685;53.104;8.228;2023-06-05T14:17:26;6.23;;;3.83;;
3343;SDS011;1685;53.104;8.228;2023-06-05T14:19:54;3.70;;;3.33;;
3343;SDS011;1685;53.104;8.228;2023-06-05T14:22:21;6.10;;;4.30;;
3343;SDS011;1685;53.104;8.228;2023-06-05T14:24:48;4.63;;;3.30;;
3343;SDS011;1685;53.104;8.228;2023-06-05T14:27:15;7.53;;;3.87;;
3343;SDS011;1685;53.104;8.228;2023-06-05T14:29:43;4.03;;;3.70;;
3343;SDS011;1685;53.104;8.228;2023-06-05T14:32:10;6.23;;;4.53;;
3343;SDS011;1685;53.104;8.228;2023-06-05T14:34:37;7.07;;;4.57;;
3343;SDS011;1685;53.104;8.228;2023-06-05T14:37:06;6.23;;;4.43;;
3343;SDS011;1685;53.104;8.228;2023-06-05T14:39:32;5.73;;;4.23;;
3343;SDS011;1685;53.104;8.228;2023-06-05T14:42:00;8.77;;;4.43;;
3343;SDS011;1685;53.104;8.228;2023-06-05T14:44:27;5.10;;;4.60;;
3343;SDS011;1685;53.104;8.228;2023-06-05T14:46:54;12.23;;;4.73;;
3343;SDS011;1685;53.104;8.228;2023-06-05T14:49:21;9.73;;;3.80;;
3343;SDS011;1685;53.104;8.228;2023-06-05T14:51:49;21.53;;;5.67;;
3343;SDS011;1685;53.104;8.228;2023-06-05T14:54:17;8.90;;;4.83;;
3343;SDS011;1685;53.104;8.228;2023-06-05T14:56:44;5.60;;;4.37;;
3343;SDS011;1685;53.104;8.228;2023-06-05T14:59:12;5.83;;;4.20;;
3343;SDS011;1685;53.104;8.228;2023-06-05T15:01:40;6.10;;;4.00;;
3343;SDS011;1685;53.104;8.228;2023-06-05T15:04:07;6.17;;;3.87;;
3343;SDS011;1685;53.104;8.228;2023-06-05T15:06:34;13.30;;;4.53;;
3343;SDS011;1685;53.104;8.228;2023-06-05T15:09:02;9.67;;;3.83;;
3343;SDS011;1685;53.104;8.228;2023-06-05T15:11:31;4.03;;;3.73;;
3343;SDS011;1685;53.104;8.228;2023-06-05T15:13:57;8.10;;;3.53;;
3343;SDS011;1685;53.104;8.228;2023-06-05T15:16:25;6.60;;;3.77;;
3343;SDS011;1685;53.104;8.228;2023-06-05T15:18:52;8.27;;;3.60;;
3343;SDS011;1685;53.104;8.228;2023-06-05T15:21:19;9.63;;;3.40;;
3343;SDS011;1685;53.104;8.228;2023-06-05T15:23:47;5.40;;;3.83;;
3343;SDS011;1685;53.104;8.228;2023-06-05T15:26:14;6.83;;;3.67;;
3343;SDS011;1685;53.104;8.228;2023-06-05T15:28:42;8.40;;;3.47;;
3343;SDS011;1685;53.104;8.228;2023-06-05T15:31:09;7.67;;;3.67;;
3343;SDS011;1685;53.104;8.228;2023-06-05T15:33:36;3.47;;;3.20;;